Time;durP1;ratioP1;P1;durP2;ratioP2;P2;SDS_P1;SDS_P2;PMS_P1;PMS_P2;Temp;Humidity;BMP_temperature;BMP_pressure;BME280_temperature;BME280_humidity;BME280_pressure;Samples;Min_cycle;Max_cycle;Signal;HPM_P1;HPM_P2
2021/12/08 00:00:53;;;;;;;52.77;24.77;;;1.70;1.00;;;;;;5030509;28;20626;-52
2021/12/08 00:03:20;;;;;;;68.10;26.33;;;1.60;1.00;;;;;;5033977;28;20675;-52
2021/12/08 00:05:46;;;;;;;64.27;24.57;;;1.60;1.00;;;;;;5033958;28;20512;-52
2021/12/08 00:08:16;;;;;;;58.67;25.70;;;1.70;1.50;;;;;;5033725;28;20472;-53
2021/12/08 00:13:16;;;;;;;62.17;24.80;;;1.70;1.00;;;;;;5033937;28;20788;-52
2021/12/08 00:15:53;;;;;;;60.83;25.07;;;1.70;1.00;;;;;;5034493;28;20405;-55
2021/12/08 00:18:23;;;;;;;61.47;25.20;;;1.70;1.00;;;;;;5033753;28;20437;-55
2021/12/08 00:20:51;;;;;;;65.77;24.70;;;1.70;1.00;;;;;;5033968;28;20452;-55
2021/12/08 00:23:17;;;;;;;55.13;24.47;;;1.70;1.00;;;;;;5033809;28;20441;-55
2021/12/08 00:25:43;;;;;;;62.90;24.90;;;1.70;1.00;;;;;;5024852;28;20916;-55
2021/12/08 00:28:09;;;;;;;61.27;24.47;;;1.70;1.00;;;;;;5033251;28;20227;-55
2021/12/08 00:30:38;;;;;;;57.37;23.97;;;1.70;1.00;;;;;;5033500;28;20456;-54
2021/12/08 00:33:06;;;;;;;61.00;23.57;;;1.60;1.00;;;;;;5031623;28;20590;-55
2021/12/08 00:35:32;;;;;;;65.67;27.77;;;1.70;1.00;;;;;;5033823;28;20487;-55
2021/12/08 00:37:58;;;;;;;61.70;24.40;;;1.70;1.00;;;;;;5033013;28;20433;-55
2021/12/08 00:40:26;;;;;;;57.87;23.03;;;1.70;1.00;;;;;;5032833;28;20433;-55
2021/12/08 00:42:52;;;;;;;56.00;23.77;;;1.70;1.00;;;;;;5033412;28;20743;-55
2021/12/08 00:45:19;;;;;;;64.67;25.60;;;1.70;1.00;;;;;;5033651;28;20463;-55
2021/12/08 00:47:46;;;;;;;49.57;22.80;;;1.70;1.00;;;;;;5032992;28;20508;-55
2021/12/08 00:50:13;;;;;;;51.63;23.67;;;1.70;1.00;;;;;;5033128;28;20518;-55
2021/12/08 00:52:39;;;;;;;61.03;24.83;;;1.70;1.00;;;;;;5033011;28;20764;-55
2021/12/08 00:55:11;;;;;;;53.83;24.23;;;1.70;1.00;;;;;;5026561;28;20490;-55
2021/12/08 00:57:37;;;;;;;66.50;24.93;;;1.70;1.00;;;;;;5032927;28;20437;-56
2021/12/08 01:00:17;;;;;;;55.70;24.50;;;1.70;1.00;;;;;;5033166;28;20433;-56
2021/12/08 01:02:43;;;;;;;59.50;24.03;;;1.70;2.30;;;;;;5032862;28;20442;-56
2021/12/08 01:05:10;;;;;;;54.53;22.80;;;1.70;4.00;;;;;;5032833;28;20426;-56
2021/12/08 01:07:37;;;;;;;62.63;24.87;;;1.70;1.00;;;;;;5032503;28;20508;-55
2021/12/08 01:10:06;;;;;;;56.23;24.87;;;1.70;1.00;;;;;;5032717;28;20465;-54
2021/12/08 01:12:32;;;;;;;69.00;25.67;;;1.70;1.00;;;;;;5032372;28;20436;-54
2021/12/08 01:14:58;;;;;;;63.17;25.57;;;1.70;1.00;;;;;;5033087;28;20406;-55
2021/12/08 01:17:23;;;;;;;57.70;23.77;;;1.80;2.00;;;;;;5032552;28;20437;-54
2021/12/08 01:19:49;;;;;;;61.73;24.10;;;1.80;1.00;;;;;;5032889;28;20197;-55
2021/12/08 01:22:15;;;;;;;55.03;23.83;;;1.80;1.00;;;;;;5032263;28;20261;-54
2021/12/08 01:24:40;;;;;;;59.20;24.17;;;1.80;1.00;;;;;;5026234;28;20653;-55
2021/12/08 01:27:06;;;;;;;52.40;22.00;;;1.80;1.00;;;;;;5032072;28;20468;-55
2021/12/08 01:29:31;;;;;;;65.83;25.27;;;1.80;1.00;;;;;;5032820;28;20194;-53
2021/12/08 01:31:57;;;;;;;61.90;23.90;;;1.90;1.00;;;;;;5032179;28;20938;-52
2021/12/08 01:34:23;;;;;;;57.13;23.17;;;1.90;1.00;;;;;;5032700;28;20179;-55
2021/12/08 01:36:48;;;;;;;55.50;24.20;;;1.80;1.00;;;;;;5032419;28;20207;-54
2021/12/08 01:39:14;;;;;;;59.53;24.10;;;1.80;1.00;;;;;;5032370;28;20265;-53
2021/12/08 01:41:40;;;;;;;60.80;23.83;;;1.90;1.00;;;;;;5031587;28;20285;-54
2021/12/08 01:46:52;;;;;;;61.30;24.43;;;1.80;1.00;;;;;;5031872;28;21029;-54
2021/12/08 01:49:18;;;;;;;53.40;21.90;;;1.90;1.00;;;;;;5032107;28;20434;-53
2021/12/08 01:51:44;;;;;;;61.87;24.90;;;1.90;1.00;;;;;;5031899;28;20430;-54
2021/12/08 01:54:10;;;;;;;52.00;21.20;;;1.90;1.00;;;;;;5030623;28;20473;-54
2021/12/08 01:56:36;;;;;;;59.37;22.97;;;1.90;1.00;;;;;;5031685;28;20430;-54
2021/12/08 01:59:04;;;;;;;54.10;23.67;;;1.90;1.00;;;;;;5031753;28;20198;-54
2021/12/08 02:01:32;;;;;;;54.10;21.73;;;1.90;1.00;;;;;;5032068;28;20245;-54
2021/12/08 02:04:04;;;;;;;58.87;23.00;;;1.90;1.00;;;;;;5032089;28;20457;-54
2021/12/08 02:06:35;;;;;;;54.77;23.77;;;1.90;1.00;;;;;;5031630;28;20421;-54
2021/12/08 02:09:03;;;;;;;56.30;22.80;;;1.90;1.00;;;;;;5031771;28;20421;-54
2021/12/08 02:11:28;;;;;;;59.93;23.23;;;1.90;1.00;;;;;;5028640;28;20896;-57
2021/12/08 02:14:00;;;;;;;56.17;22.97;;;2.00;1.00;;;;;;5031867;28;20409;-55
2021/12/08 02:16:26;;;;;;;53.57;21.87;;;2.00;1.00;;;;;;5031785;28;20187;-55
2021/12/08 02:18:52;;;;;;;53.77;22.27;;;1.90;1.00;;;;;;5031804;28;20422;-54
2021/12/08 02:21:30;;;;;;;52.13;22.40;;;2.00;1.00;;;;;;5031729;28;20190;-51
2021/12/08 02:23:59;;;;;;;53.40;21.27;;;2.00;1.00;;;;;;5029779;28;20417;-52
2021/12/08 02:26:27;;;;;;;52.13;22.37;;;2.00;1.00;;;;;;5031198;28;20434;-52
2021/12/08 02:28:53;;;;;;;57.40;22.87;;;2.10;1.00;;;;;;5031299;28;20420;-52
2021/12/08 02:31:30;;;;;;;54.57;21.67;;;2.10;1.00;;;;;;5031855;28;20776;-52
2021/12/08 02:47:55;;;;;;;47.57;19.30;;;2.20;1.00;;;;;;5031304;28;20497;-52
2021/12/08 02:50:27;;;;;;;44.30;18.90;;;2.20;1.00;;;;;;5030645;28;20508;-53
2021/12/08 02:52:55;;;;;;;50.57;20.77;;;2.20;1.00;;;;;;5031449;28;20520;-53
2021/12/08 02:55:21;;;;;;;42.87;19.97;;;2.20;1.00;;;;;;5030907;28;20473;-53
2021/12/08 02:57:46;;;;;;;43.60;19.60;;;2.30;1.00;;;;;;5031178;28;20792;-53
2021/12/08 03:00:17;;;;;;;42.67;19.03;;;2.20;1.00;;;;;;5030853;28;20432;-55
2021/12/08 03:02:42;;;;;;;51.23;20.57;;;2.30;1.00;;;;;;5031264;28;20191;-51
2021/12/08 03:05:09;;;;;;;45.50;18.90;;;2.30;1.00;;;;;;5030992;28;20441;-52
2021/12/08 03:07:35;;;;;;;45.03;20.60;;;2.30;1.00;;;;;;5031340;28;20221;-51
2021/12/08 03:10:06;;;;;;;42.57;18.97;;;2.30;1.00;;;;;;5030911;28;20451;-55
2021/12/08 03:12:32;;;;;;;39.83;17.83;;;2.30;1.00;;;;;;5031062;28;20422;-54
2021/12/08 03:14:57;;;;;;;42.00;18.07;;;2.30;1.00;;;;;;5030281;28;20444;-54
2021/12/08 03:17:23;;;;;;;41.30;18.70;;;2.30;1.00;;;;;;5030869;28;20202;-54
2021/12/08 03:19:49;;;;;;;41.27;18.70;;;2.30;1.00;;;;;;5023984;28;20557;-54
2021/12/08 03:22:15;;;;;;;43.70;18.83;;;2.30;1.00;;;;;;5028120;28;20297;-54
2021/12/08 03:24:44;;;;;;;42.50;18.17;;;2.30;1.00;;;;;;5031032;28;20183;-55
2021/12/08 03:27:13;;;;;;;45.83;18.47;;;2.30;1.00;;;;;;5030896;28;20226;-54
2021/12/08 03:32:24;;;;;;;41.93;18.47;;;2.30;1.00;;;;;;5031368;28;20406;-53
2021/12/08 03:34:51;;;;;;;45.17;16.80;;;2.30;1.00;;;;;;5029568;28;20460;-54
2021/12/08 03:37:33;;;;;;;41.87;18.23;;;2.30;1.00;;;;;;5034814;28;20401;-54
2021/12/08 03:40:00;;;;;;;38.70;17.50;;;2.30;1.00;;;;;;5032803;28;20797;-54
2021/12/08 03:42:30;;;;;;;42.03;17.73;;;2.30;1.00;;;;;;5034674;28;20951;-54
2021/12/08 03:44:59;;;;;;;38.00;18.40;;;2.30;1.00;;;;;;5033933;28;20405;-54
2021/12/08 03:47:28;;;;;;;39.30;18.00;;;2.30;1.00;;;;;;5034594;28;20516;-54
2021/12/08 03:49:56;;;;;;;40.10;17.43;;;2.30;1.00;;;;;;5034580;28;20420;-54
2021/12/08 03:52:22;;;;;;;43.83;16.60;;;2.40;1.00;;;;;;5034622;28;20770;-54
2021/12/08 03:54:48;;;;;;;52.60;17.83;;;2.40;1.00;;;;;;5034470;28;20477;-54
2021/12/08 03:57:13;;;;;;;45.00;17.63;;;2.40;1.00;;;;;;5034775;28;20195;-54
2021/12/08 03:59:39;;;;;;;43.23;18.60;;;2.40;1.00;;;;;;5033012;28;20256;-52
2021/12/08 04:02:04;;;;;;;41.63;17.70;;;2.40;1.00;;;;;;5034083;28;20222;-52
2021/12/08 04:04:40;;;;;;;35.20;16.23;;;2.40;1.00;;;;;;5034295;28;20260;-52
2021/12/08 04:07:06;;;;;;;32.73;15.70;;;2.40;1.00;;;;;;5034188;28;20210;-52
2021/12/08 04:09:38;;;;;;;42.97;16.63;;;2.40;1.00;;;;;;5034242;28;20429;-52
2021/12/08 04:12:04;;;;;;;38.70;17.30;;;2.40;1.00;;;;;;5033817;28;20457;-52
2021/12/08 04:14:35;;;;;;;34.30;16.07;;;2.40;1.00;;;;;;5034040;28;20888;-54
2021/12/08 04:17:25;;;;;;;36.93;16.83;;;2.40;1.00;;;;;;5022358;28;20190;-52
2021/12/08 04:19:52;;;;;;;35.30;15.60;;;2.40;1.00;;;;;;5034019;28;20437;-53
2021/12/08 04:22:28;;;;;;;31.73;16.20;;;2.50;1.00;;;;;;5033541;28;20524;-53
2021/12/08 04:24:55;;;;;;;34.40;17.00;;;2.60;1.00;;;;;;5033791;28;20422;-53
2021/12/08 04:27:26;;;;;;;36.07;16.97;;;2.60;1.00;;;;;;5033971;28;20474;-54
2021/12/08 04:29:52;;;;;;;36.00;15.57;;;2.60;1.00;;;;;;5033329;28;20461;-53
2021/12/08 04:32:21;;;;;;;30.13;15.37;;;2.60;1.00;;;;;;5033863;28;20460;-53
2021/12/08 04:34:51;;;;;;;30.00;15.13;;;2.60;1.00;;;;;;5033446;28;20575;-53
2021/12/08 04:37:25;;;;;;;29.93;15.60;;;2.60;1.00;;;;;;5033778;28;20468;-54
2021/12/08 04:40:13;;;;;;;35.40;15.90;;;2.60;1.00;;;;;;5033332;28;20993;-53
2021/12/08 04:45:19;;;;;;;35.63;16.10;;;2.30;1.00;;;;;;5031819;28;20441;-53
2021/12/08 04:48:05;;;;;;;37.30;16.47;;;2.30;1.00;;;;;;5032817;28;20488;-51
2021/12/08 05:09:23;;;;;;;36.70;16.80;;;1.80;1.00;;;;;;5032730;28;20433;-53
2021/12/08 05:11:53;;;;;;;42.63;16.17;;;1.80;6.70;;;;;;5028291;28;20436;-52
2021/12/08 05:14:33;;;;;;;37.00;17.53;;;1.70;12.70;;;;;;5032672;28;20436;-52
2021/12/08 05:17:07;;;;;;;44.40;19.50;;;1.70;24.50;;;;;;5033100;28;20468;-52
2021/12/08 05:19:34;;;;;;;38.50;19.37;;;1.70;35.60;;;;;;5032704;28;20923;-53
2021/12/08 05:22:09;;;;;;;41.90;17.40;;;1.60;40.30;;;;;;5031839;28;20429;-52
2021/12/08 05:24:40;;;;;;;40.37;19.50;;;1.60;50.80;;;;;;5032920;28;20414;-54
2021/12/08 05:27:15;;;;;;;38.17;18.00;;;1.60;59.40;;;;;;5032409;28;20951;-53
2021/12/08 05:29:51;;;;;;;39.43;18.63;;;1.60;72.80;;;;;;5032757;28;20993;-52
2021/12/08 05:32:18;;;;;;;39.00;18.00;;;1.60;75.60;;;;;;5032958;28;20433;-52
2021/12/08 05:34:44;;;;;;;43.50;17.77;;;1.60;81.40;;;;;;5032429;28;21188;-52
2021/12/08 05:37:12;;;;;;;44.00;18.63;;;1.60;87.70;;;;;;5032065;28;20917;-53
2021/12/08 05:39:38;;;;;;;43.50;19.20;;;1.60;88.50;;;;;;5032031;28;20913;-64
2021/12/08 05:42:09;;;;;;;42.40;19.97;;;1.60;91.20;;;;;;5032347;28;20440;-53
2021/12/08 05:44:35;;;;;;;46.50;18.37;;;1.50;90.20;;;;;;5032635;28;20399;-53
2021/12/08 05:47:04;;;;;;;40.43;18.63;;;1.40;92.50;;;;;;5028885;28;20544;-54
2021/12/08 05:49:29;;;;;;;44.27;20.03;;;1.40;98.70;;;;;;5032183;28;20421;-54
2021/12/08 05:51:56;;;;;;;39.97;18.83;;;1.40;99.90;;;;;;5031937;28;20912;-54
2021/12/08 05:54:34;;;;;;;52.10;22.40;;;1.40;99.90;;;;;;5026510;28;20202;-54
2021/12/08 05:57:08;;;;;;;50.97;20.10;;;1.30;99.90;;;;;;5032358;28;20475;-54
2021/12/08 05:59:35;;;;;;;42.53;19.63;;;1.30;99.90;;;;;;5030813;28;20429;-55
2021/12/08 06:02:08;;;;;;;49.30;22.00;;;1.30;99.90;;;;;;5032260;28;20438;-54
2021/12/08 06:04:35;;;;;;;44.47;19.47;;;1.30;99.90;;;;;;5031478;28;20460;-54
2021/12/08 06:07:01;;;;;;;44.20;21.40;;;1.30;99.90;;;;;;5031591;28;20586;-55
2021/12/08 06:09:28;;;;;;;43.80;20.37;;;1.20;99.90;;;;;;5031403;28;20480;-54
2021/12/08 06:11:55;;;;;;;45.97;20.50;;;1.20;99.90;;;;;;5031899;28;20422;-54
2021/12/08 06:14:25;;;;;;;41.70;19.33;;;1.20;99.90;;;;;;5031636;28;20496;-54
2021/12/08 06:16:53;;;;;;;47.47;21.00;;;1.20;99.90;;;;;;5031333;28;20484;-54
2021/12/08 06:19:19;;;;;;;47.30;21.60;;;1.20;99.90;;;;;;5031339;28;20432;-54
2021/12/08 06:21:47;;;;;;;47.77;20.60;;;1.20;99.90;;;;;;5031149;28;20484;-53
2021/12/08 06:24:15;;;;;;;45.30;21.67;;;1.20;99.90;;;;;;5032065;28;20430;-51
2021/12/08 06:26:41;;;;;;;49.10;22.10;;;1.00;99.90;;;;;;5031877;28;20445;-52
2021/12/08 06:29:09;;;;;;;55.70;22.80;;;1.10;99.90;;;;;;5031159;28;20428;-52
2021/12/08 06:31:37;;;;;;;46.07;22.10;;;1.10;99.90;;;;;;5031978;28;20403;-51
2021/12/08 06:34:03;;;;;;;48.87;21.60;;;1.10;99.90;;;;;;5031535;28;20429;-54
2021/12/08 06:36:36;;;;;;;47.53;21.80;;;1.10;99.90;;;;;;5031518;28;20496;-51
2021/12/08 06:39:07;;;;;;;45.30;21.43;;;1.10;99.90;;;;;;5031282;28;20753;-51
2021/12/08 06:41:37;;;;;;;50.40;22.70;;;1.10;99.90;;;;;;5031418;28;20420;-50
2021/12/08 06:44:11;;;;;;;54.00;23.10;;;1.10;99.90;;;;;;5031217;28;20496;-52
2021/12/08 06:46:38;;;;;;;52.20;23.97;;;1.10;99.90;;;;;;5028527;28;20429;-51
2021/12/08 06:49:05;;;;;;;50.13;23.37;;;1.10;99.90;;;;;;5031093;28;20421;-51
2021/12/08 06:51:45;;;;;;;51.13;22.03;;;1.20;99.90;;;;;;5031342;28;20491;-52
2021/12/08 06:54:18;;;;;;;51.70;22.83;;;1.20;99.90;;;;;;5027840;28;21085;-53
2021/12/08 06:56:50;;;;;;;48.93;22.10;;;1.20;99.90;;;;;;5011277;28;20440;-51
2021/12/08 06:59:21;;;;;;;51.37;23.17;;;1.30;99.90;;;;;;5011150;28;20431;-51
2021/12/08 07:02:04;;;;;;;56.17;23.33;;;1.30;99.90;;;;;;5011188;28;20433;-52
2021/12/08 07:04:41;;;;;;;51.10;22.83;;;1.30;99.90;;;;;;5011465;28;20403;-51
2021/12/08 07:07:18;;;;;;;53.07;22.83;;;1.30;99.90;;;;;;5010846;28;20608;-52
2021/12/08 07:09:53;;;;;;;56.43;23.83;;;1.30;99.90;;;;;;5010947;28;20438;-52
2021/12/08 07:12:35;;;;;;;55.73;24.00;;;1.20;99.90;;;;;;5011443;28;20906;-51
2021/12/08 07:15:14;;;;;;;55.03;22.87;;;1.20;99.90;;;;;;5011141;28;20435;-51
2021/12/08 07:17:43;;;;;;;45.43;22.30;;;1.30;99.90;;;;;;4991979;28;20781;-51
2021/12/08 07:20:28;;;;;;;48.23;22.20;;;1.30;99.90;;;;;;5007567;28;20441;-53
2021/12/08 07:22:55;;;;;;;51.90;23.17;;;1.30;99.90;;;;;;5011484;28;20768;-53
2021/12/08 07:25:25;;;;;;;53.20;22.77;;;1.30;99.90;;;;;;5010976;28;20516;-52
2021/12/08 07:27:53;;;;;;;53.03;23.70;;;1.20;99.90;;;;;;5011198;28;20459;-51
2021/12/08 07:30:29;;;;;;;50.03;23.00;;;1.40;99.90;;;;;;5010858;28;20434;-51
2021/12/08 07:32:55;;;;;;;54.93;24.40;;;1.40;99.90;;;;;;5011127;28;20430;-51
2021/12/08 07:35:33;;;;;;;50.63;21.90;;;1.30;99.90;;;;;;5011404;28;20399;-52
2021/12/08 07:37:59;;;;;;;53.93;23.73;;;1.40;99.90;;;;;;5010726;28;20418;-53
2021/12/08 07:41:01;;;;;;;51.43;22.23;;;1.40;99.90;;;;;;5010098;28;20434;-61
2021/12/08 07:43:27;;;;;;;50.80;22.50;;;1.40;99.90;;;;;;4997579;28;20426;-52
2021/12/08 07:46:06;;;;;;;51.67;23.33;;;1.40;99.90;;;;;;5001197;28;20423;-52
2021/12/08 07:48:54;;;;;;;50.40;23.07;;;1.40;99.90;;;;;;5005828;28;21152;-51
2021/12/08 07:51:27;;;;;;;49.70;22.80;;;1.40;99.90;;;;;;5006003;28;20440;-49
2021/12/08 07:53:53;;;;;;;52.07;22.30;;;1.40;99.90;;;;;;5009569;28;20497;-49
2021/12/08 07:56:21;;;;;;;48.20;22.27;;;1.40;99.90;;;;;;5028539;28;20862;-49
2021/12/08 07:58:53;;;;;;;57.40;23.67;;;1.50;99.90;;;;;;5029305;28;20210;-49
2021/12/08 08:01:23;;;;;;;48.53;22.27;;;1.50;99.90;;;;;;5029283;28;20442;-52
2021/12/08 08:03:50;;;;;;;45.77;22.23;;;1.50;99.90;;;;;;5030728;28;20460;-50
2021/12/08 08:06:20;;;;;;;53.87;21.90;;;1.50;99.90;;;;;;5030311;28;20771;-51
2021/12/08 08:08:46;;;;;;;47.80;23.17;;;1.50;99.90;;;;;;5026429;28;20466;-51
2021/12/08 08:11:19;;;;;;;52.13;23.20;;;1.50;99.90;;;;;;5029641;28;20417;-51
2021/12/08 08:13:45;;;;;;;48.47;21.30;;;1.60;99.90;;;;;;5027537;28;20453;-52
2021/12/08 08:16:15;;;;;;;50.83;22.27;;;1.60;99.90;;;;;;5027259;28;20429;-52
2021/12/08 08:18:47;;;;;;;46.53;20.80;;;1.60;99.90;;;;;;5028431;28;20179;-52
2021/12/08 08:21:18;;;;;;;46.93;22.03;;;1.70;99.90;;;;;;5028979;28;20484;-52
2021/12/08 08:23:45;;;;;;;43.23;20.87;;;1.70;99.90;;;;;;5033272;28;20983;-52
2021/12/08 08:26:12;;;;;;;45.20;21.60;;;1.70;99.90;;;;;;5033964;28;20973;-52
2021/12/08 08:28:40;;;;;;;48.43;22.83;;;1.70;99.90;;;;;;5033255;28;20461;-52
2021/12/08 08:31:10;;;;;;;43.20;21.20;;;1.70;99.90;;;;;;5033180;28;20433;-51
2021/12/08 08:33:38;;;;;;;49.77;23.37;;;1.70;99.90;;;;;;5033489;28;20436;-52
2021/12/08 08:36:08;;;;;;;43.83;21.40;;;1.80;99.90;;;;;;5033102;28;20461;-53
2021/12/08 08:38:42;;;;;;;45.37;21.30;;;1.70;99.90;;;;;;5032730;28;20432;-51
2021/12/08 08:41:17;;;;;;;44.87;21.77;;;1.80;99.90;;;;;;5033261;28;20442;-53
2021/12/08 08:43:44;;;;;;;44.10;21.70;;;1.80;99.90;;;;;;5033491;28;20464;-59
2021/12/08 08:46:14;;;;;;;44.63;20.90;;;1.80;99.90;;;;;;5033521;28;20890;-52
2021/12/08 08:48:48;;;;;;;47.53;22.50;;;1.80;99.90;;;;;;5033623;28;20469;-53
2021/12/08 08:51:24;;;;;;;44.07;22.17;;;1.90;99.90;;;;;;5033180;28;20845;-53
2021/12/08 08:53:55;;;;;;;41.77;20.80;;;1.90;99.90;;;;;;5032809;28;20445;-52
2021/12/08 08:56:37;;;;;;;42.53;20.50;;;1.90;99.90;;;;;;5032852;28;20489;-55
2021/12/08 08:59:12;;;;;;;46.03;21.20;;;1.90;99.90;;;;;;5032733;28;20449;-54
2021/12/08 09:01:44;;;;;;;42.80;21.37;;;1.90;99.90;;;;;;5037581;28;20440;-52
2021/12/08 09:04:31;;;;;;;41.47;20.97;;;2.00;99.90;;;;;;5033218;28;20422;-52
2021/12/08 09:07:02;;;;;;;42.13;20.63;;;1.90;99.90;;;;;;5032624;28;20462;-54
2021/12/08 09:09:32;;;;;;;42.10;20.43;;;1.90;99.90;;;;;;5032933;28;20430;-52
2021/12/08 09:12:14;;;;;;;42.80;21.03;;;2.00;99.90;;;;;;5032933;28;20430;-52
2021/12/08 09:14:57;;;;;;;44.07;21.53;;;2.10;99.90;;;;;;5032962;28;20424;-52
2021/12/08 09:17:37;;;;;;;44.00;20.13;;;2.10;99.90;;;;;;5032473;28;20433;-52
2021/12/08 09:20:15;;;;;;;36.90;20.37;;;2.10;99.90;;;;;;5013384;28;20430;-52
2021/12/08 09:22:56;;;;;;;44.73;20.33;;;2.20;99.90;;;;;;5022563;28;20422;-52
2021/12/08 09:25:34;;;;;;;40.43;20.43;;;2.20;99.90;;;;;;5030462;28;20409;-52
2021/12/08 09:28:08;;;;;;;43.33;21.10;;;2.30;99.90;;;;;;5032694;28;20481;-52
2021/12/08 09:30:42;;;;;;;39.50;20.67;;;2.30;99.90;;;;;;5035770;28;20839;-52
2021/12/08 09:33:15;;;;;;;46.03;20.67;;;2.30;99.90;;;;;;5034280;28;20473;-52
2021/12/08 09:36:03;;;;;;;40.93;20.80;;;2.30;99.90;;;;;;5032170;28;20923;-51
2021/12/08 09:38:42;;;;;;;44.67;21.13;;;2.40;99.90;;;;;;5014402;28;20439;-53
2021/12/08 09:41:19;;;;;;;38.63;19.20;;;2.40;99.90;;;;;;5030404;28;20946;-51
2021/12/08 09:43:53;;;;;;;43.97;20.40;;;2.40;99.90;;;;;;5032261;28;20417;-52
2021/12/08 09:46:30;;;;;;;40.40;20.20;;;2.40;99.90;;;;;;5032226;28;20421;-51
2021/12/08 09:48:55;;;;;;;38.27;18.97;;;2.50;99.90;;;;;;5031454;28;21009;-53
2021/12/08 09:51:24;;;;;;;39.97;21.03;;;2.50;99.90;;;;;;5032482;28;20417;-56
2021/12/08 09:53:51;;;;;;;42.33;20.00;;;2.60;99.90;;;;;;5031904;28;20183;-54
2021/12/08 09:56:18;;;;;;;40.60;20.40;;;2.60;99.90;;;;;;5021505;28;21008;-56
2021/12/08 09:58:44;;;;;;;37.27;19.70;;;2.70;99.90;;;;;;5032243;28;20425;-54
2021/12/08 10:01:16;;;;;;;39.37;18.63;;;2.60;99.90;;;;;;5030272;28;20775;-53
2021/12/08 10:03:43;;;;;;;38.27;19.00;;;2.70;98.90;;;;;;5031787;28;20450;-53
2021/12/08 10:06:10;;;;;;;35.90;18.50;;;2.70;99.10;;;;;;5031889;28;20430;-54
2021/12/08 10:08:35;;;;;;;37.33;17.87;;;2.70;98.70;;;;;;5032329;28;20469;-54
2021/12/08 10:11:02;;;;;;;35.40;17.90;;;2.80;99.90;;;;;;5031740;28;20410;-54
2021/12/08 10:13:28;;;;;;;38.27;18.73;;;2.90;95.60;;;;;;5031875;28;20183;-54
2021/12/08 10:15:53;;;;;;;35.90;18.50;;;2.90;92.50;;;;;;5031672;28;20452;-54
2021/12/08 10:18:19;;;;;;;41.33;18.00;;;2.90;77.10;;;;;;5032009;28;20182;-54
2021/12/08 10:20:48;;;;;;;35.23;18.10;;;3.00;67.70;;;;;;5030912;28;20194;-54
2021/12/08 10:23:33;;;;;;;37.10;17.37;;;3.00;56.20;;;;;;5031602;28;20582;-54
2021/12/08 10:26:01;;;;;;;37.83;18.00;;;3.00;57.60;;;;;;5031164;28;20426;-55
2021/12/08 10:28:42;;;;;;;33.93;16.70;;;2.90;52.80;;;;;;5031378;28;20868;-55
2021/12/08 10:31:30;;;;;;;35.17;17.43;;;3.00;65.50;;;;;;5025590;28;20491;-55
2021/12/08 10:39:12;;;;;;;38.70;17.50;;;3.10;48.60;;;;;;5030605;28;20906;-54
2021/12/08 10:42:04;;;;;;;29.47;16.17;;;3.00;29.90;;;;;;5030318;28;20449;-57
2021/12/08 10:44:41;;;;;;;31.87;16.57;;;3.10;24.00;;;;;;5030948;28;20429;-55
2021/12/08 10:47:08;;;;;;;40.83;18.90;;;3.10;26.30;;;;;;5030738;28;20556;-55
2021/12/08 10:54:51;;;;;;;31.53;16.60;;;3.20;33.20;;;;;;5025842;28;20500;-56
2021/12/08 10:57:31;;;;;;;34.50;17.50;;;3.20;7.10;;;;;;5026762;28;20437;-56
2021/12/08 11:00:05;;;;;;;31.23;16.63;;;3.30;3.50;;;;;;5029800;28;20522;-55
2021/12/08 11:02:52;;;;;;;29.50;15.90;;;3.30;10.30;;;;;;5030397;28;20450;-56
2021/12/08 11:05:24;;;;;;;33.40;17.17;;;3.30;19.20;;;;;;5030897;28;20461;-56
2021/12/08 11:08:01;;;;;;;34.90;17.03;;;3.40;18.40;;;;;;5029813;28;20458;-55
2021/12/08 11:10:26;;;;;;;29.73;16.20;;;3.40;9.30;;;;;;5029728;28;20785;-55
2021/12/08 11:12:54;;;;;;;35.30;15.63;;;3.40;7.90;;;;;;5038656;28;20432;-53
2021/12/08 11:15:22;;;;;;;27.93;15.43;;;3.50;1.00;;;;;;5050948;28;20208;-55
2021/12/08 11:18:05;;;;;;;31.40;16.10;;;3.40;1.00;;;;;;5031068;28;20520;-55
2021/12/08 11:20:32;;;;;;;28.77;15.37;;;3.40;4.70;;;;;;5022868;28;20437;-55
2021/12/08 11:23:08;;;;;;;28.47;15.77;;;3.50;1.90;;;;;;5030132;28;20492;-56
2021/12/08 11:25:41;;;;;;;37.03;16.60;;;3.50;1.00;;;;;;5025044;28;20496;-56
2021/12/08 11:28:33;;;;;;;36.57;17.63;;;3.40;1.00;;;;;;5030460;28;20476;-55
2021/12/08 11:31:14;;;;;;;33.60;16.90;;;3.50;14.50;;;;;;5011373;28;20893;-56
2021/12/08 11:33:44;;;;;;;30.70;16.17;;;3.40;1.00;;;;;;5023730;28;20438;-56
2021/12/08 11:36:17;;;;;;;35.20;16.97;;;3.40;3.10;;;;;;5029941;28;20425;-55
2021/12/08 11:38:44;;;;;;;29.47;15.20;;;3.40;17.80;;;;;;5030393;28;20961;-57
2021/12/08 11:41:36;;;;;;;36.07;16.33;;;3.40;1.80;;;;;;5030934;28;20770;-56
2021/12/08 11:44:14;;;;;;;31.17;16.63;;;3.50;2.60;;;;;;5011044;28;20490;-56
2021/12/08 11:46:45;;;;;;;31.27;15.30;;;3.50;1.00;;;;;;5021563;28;20436;-57
2021/12/08 11:49:11;;;;;;;35.67;17.87;;;3.50;1.00;;;;;;5026428;28;20415;-56
2021/12/08 11:51:42;;;;;;;31.83;17.40;;;3.40;1.00;;;;;;5011295;28;20434;-55
2021/12/08 11:54:24;;;;;;;33.57;16.10;;;3.40;1.00;;;;;;5011120;28;20850;-56
2021/12/08 11:56:50;;;;;;;28.57;15.43;;;3.50;1.00;;;;;;5011907;28;20473;-57
2021/12/08 11:59:16;;;;;;;28.87;16.50;;;3.50;1.00;;;;;;5014785;28;20881;-56
2021/12/08 12:01:41;;;;;;;34.53;15.70;;;3.50;1.00;;;;;;5014728;28;20191;-57
2021/12/08 12:04:10;;;;;;;30.13;15.20;;;3.60;1.00;;;;;;5014471;28;20195;-57
2021/12/08 12:06:38;;;;;;;30.80;16.47;;;3.60;1.00;;;;;;5014885;28;20645;-56
2021/12/08 12:09:07;;;;;;;26.80;15.67;;;3.60;1.00;;;;;;5014419;28;20493;-56
2021/12/08 12:11:33;;;;;;;31.70;16.50;;;3.60;1.00;;;;;;5014107;28;20467;-56
2021/12/08 12:14:00;;;;;;;32.60;17.07;;;3.70;1.00;;;;;;5014221;28;20423;-57
2021/12/08 12:16:26;;;;;;;31.97;16.37;;;3.70;1.00;;;;;;5014370;28;20227;-58
2021/12/08 12:18:55;;;;;;;32.50;15.57;;;3.70;1.00;;;;;;5008239;28;20813;-59
2021/12/08 12:21:23;;;;;;;29.50;16.67;;;3.90;1.00;;;;;;4994787;28;20423;-59
2021/12/08 12:24:21;;;;;;;30.53;16.30;;;3.90;1.00;;;;;;4994323;28;20408;-57
2021/12/08 12:27:23;;;;;;;29.50;15.30;;;4.10;1.00;;;;;;5012178;28;20938;-57
2021/12/08 12:29:57;;;;;;;31.07;16.70;;;4.10;1.00;;;;;;5007643;28;20770;-58
2021/12/08 12:32:30;;;;;;;30.03;14.97;;;4.10;1.00;;;;;;5011860;28;20409;-59
2021/12/08 12:35:23;;;;;;;32.37;15.97;;;4.10;1.00;;;;;;5014102;28;20387;-57
2021/12/08 12:37:59;;;;;;;30.50;14.73;;;4.10;1.00;;;;;;5014250;28;20923;-59
2021/12/08 12:40:40;;;;;;;27.50;14.37;;;4.10;1.00;;;;;;4998567;28;20524;-60
2021/12/08 12:43:06;;;;;;;33.80;14.93;;;4.00;1.00;;;;;;5012726;28;20434;-55
2021/12/08 12:45:43;;;;;;;28.73;15.50;;;4.00;1.00;;;;;;5010665;28;20462;-59
2021/12/08 12:48:17;;;;;;;30.37;15.23;;;3.90;1.00;;;;;;5013227;28;20462;-61
2021/12/08 12:50:53;;;;;;;28.77;15.40;;;3.80;1.00;;;;;;5013643;28;20422;-56
2021/12/08 12:53:54;;;;;;;31.27;17.93;;;3.80;1.00;;;;;;5013430;28;20529;-58
2021/12/08 12:56:34;;;;;;;34.03;16.43;;;3.80;1.00;;;;;;5031349;28;20548;-58
2021/12/08 12:59:10;;;;;;;36.93;17.73;;;3.80;1.00;;;;;;5032885;28;20430;-58
2021/12/08 13:01:43;;;;;;;36.50;17.93;;;3.70;1.00;;;;;;5030258;28;20898;-58
2021/12/08 13:04:20;;;;;;;37.50;16.97;;;3.70;1.00;;;;;;5019240;28;20458;-58
2021/12/08 13:06:50;;;;;;;35.70;18.87;;;3.70;1.00;;;;;;5033161;28;20421;-56
2021/12/08 13:09:41;;;;;;;31.67;16.50;;;3.60;1.00;;;;;;5015325;28;20435;-57
2021/12/08 13:12:13;;;;;;;31.47;17.20;;;3.60;1.00;;;;;;5016930;28;20513;-56
2021/12/08 13:14:39;;;;;;;34.43;16.20;;;3.60;1.00;;;;;;5033584;28;20771;-58
2021/12/08 13:17:17;;;;;;;30.30;16.70;;;3.60;1.00;;;;;;5032883;28;20432;-58
2021/12/08 13:19:55;;;;;;;34.40;16.87;;;3.60;1.00;;;;;;5032708;28;20429;-57
2021/12/08 13:22:46;;;;;;;43.20;18.43;;;3.50;1.00;;;;;;5032851;28;20769;-57
2021/12/08 13:25:25;;;;;;;37.80;17.43;;;3.50;1.00;;;;;;5032279;28;20925;-56
2021/12/08 13:28:33;;;;;;;37.10;18.00;;;3.50;1.00;;;;;;5032446;28;20461;-58
2021/12/08 13:31:14;;;;;;;30.93;17.00;;;3.50;1.00;;;;;;5032878;28;20413;-57
2021/12/08 13:33:43;;;;;;;45.33;16.37;;;3.60;1.00;;;;;;5031153;28;21280;-56
2021/12/08 13:36:20;;;;;;;42.27;17.80;;;3.50;1.00;;;;;;5032203;28;20437;-57
2021/12/08 13:38:58;;;;;;;30.20;15.67;;;3.50;1.00;;;;;;5032975;28;20746;-56
2021/12/08 13:41:30;;;;;;;34.90;17.50;;;3.50;1.00;;;;;;5032729;28;20408;-58
2021/12/08 13:43:57;;;;;;;39.00;18.67;;;3.50;1.00;;;;;;5032811;28;20401;-56
2021/12/08 13:46:42;;;;;;;37.43;17.40;;;3.50;1.00;;;;;;5017631;28;20478;-57
2021/12/08 13:49:27;;;;;;;41.33;18.83;;;3.50;1.00;;;;;;5026699;28;20552;-57
2021/12/08 13:52:07;;;;;;;37.77;18.77;;;3.40;1.00;;;;;;5032694;28;21217;-57
2021/12/08 13:54:34;;;;;;;42.53;19.23;;;3.40;1.00;;;;;;5031733;28;20551;-53
2021/12/08 13:57:02;;;;;;;34.80;17.70;;;3.40;1.00;;;;;;5031387;28;20426;-52
2021/12/08 13:59:54;;;;;;;39.20;18.20;;;3.40;1.00;;;;;;5031689;28;20437;-52